Time;durP1;ratioP1;P1;durP2;ratioP2;P2;SDS_P1;SDS_P2;PMS_P1;PMS_P2;Temp;Humidity;BMP_temperature;BMP_pressure;BME280_temperature;BME280_humidity;BME280_pressure;Samples;Min_cycle;Max_cycle;Signal;HPM_P1;HPM_P2
2023/01/13 00:01:13;;;;;;;8.57;5.43;;;;;;;;;;5070502;28;20075;-55
2023/01/13 00:03:39;;;;;;;8.00;5.50;;;;;;;;;;5070721;28;20038;-55
2023/01/13 00:06:05;;;;;;;8.70;5.82;;;;;;;;;;5071543;28;20103;-62
2023/01/13 00:08:32;;;;;;;6.05;4.80;;;;;;;;;;5071237;28;20523;-54
2023/01/13 00:10:57;;;;;;;6.93;4.88;;;;;;;;;;5071585;28;20429;-56
2023/01/13 00:13:25;;;;;;;7.40;5.45;;;;;;;;;;5053761;28;20081;-54
2023/01/13 00:16:04;;;;;;;7.22;5.30;;;;;;;;;;5071545;28;20024;-53
2023/01/13 00:18:30;;;;;;;6.00;4.80;;;;;;;;;;5072337;28;20025;-54
2023/01/13 00:21:00;;;;;;;8.07;5.28;;;;;;;;;;5072363;28;20027;-55
2023/01/13 00:23:27;;;;;;;7.00;5.43;;;;;;;;;;5072026;28;20025;-54
2023/01/13 00:25:58;;;;;;;6.80;5.22;;;;;;;;;;5071352;28;20044;-51
2023/01/13 00:28:24;;;;;;;7.78;5.40;;;;;;;;;;5072202;28;20032;-59
2023/01/13 00:30:50;;;;;;;8.45;5.35;;;;;;;;;;5072305;28;20506;-54
2023/01/13 00:33:15;;;;;;;6.85;4.93;;;;;;;;;;5071456;28;20032;-56
2023/01/13 00:35:41;;;;;;;7.40;5.00;;;;;;;;;;5072211;28;20020;-53
2023/01/13 00:38:06;;;;;;;7.13;5.18;;;;;;;;;;5072241;28;20040;-53
2023/01/13 00:40:32;;;;;;;5.63;4.93;;;;;;;;;;5072266;28;20099;-55
2023/01/13 00:45:42;;;;;;;6.28;5.07;;;;;;;;;;5072102;28;20198;-57
2023/01/13 00:48:08;;;;;;;7.80;5.63;;;;;;;;;;5072390;28;20103;-54
2023/01/13 00:50:34;;;;;;;7.53;5.35;;;;;;;;;;5072393;28;20472;-58
2023/01/13 00:52:59;;;;;;;7.57;5.05;;;;;;;;;;5072330;28;20464;-61
2023/01/13 00:55:25;;;;;;;6.78;4.93;;;;;;;;;;5072215;28;20651;-62
2023/01/13 00:57:51;;;;;;;7.53;5.22;;;;;;;;;;5073465;28;20025;-63
2023/01/13 01:00:17;;;;;;;6.60;5.25;;;;;;;;;;5076099;28;20024;-53
2023/01/13 01:02:42;;;;;;;7.75;5.28;;;;;;;;;;5075905;28;20021;-62
2023/01/13 01:05:08;;;;;;;7.10;5.07;;;;;;;;;;5076041;28;20074;-61
2023/01/13 01:07:37;;;;;;;7.88;5.00;;;;;;;;;;5076114;28;20123;-59
2023/01/13 01:10:03;;;;;;;6.85;5.07;;;;;;;;;;5075908;28;20032;-62
2023/01/13 01:12:28;;;;;;;6.63;5.07;;;;;;;;;;5057838;28;20028;-52
2023/01/13 01:14:54;;;;;;;6.68;4.85;;;;;;;;;;5075763;28;20115;-62
2023/01/13 01:17:20;;;;;;;7.82;5.30;;;;;;;;;;5075712;28;20059;-57
2023/01/13 01:19:45;;;;;;;6.82;4.90;;;;;;;;;;5075641;28;20093;-59
2023/01/13 01:22:11;;;;;;;7.13;5.18;;;;;;;;;;5075559;28;20082;-56
2023/01/13 01:24:36;;;;;;;7.03;5.10;;;;;;;;;;5075807;28;20051;-56
2023/01/13 01:27:02;;;;;;;6.53;5.13;;;;;;;;;;5075781;28;20464;-52
2023/01/13 01:29:27;;;;;;;7.30;5.40;;;;;;;;;;5075557;28;20473;-62
2023/01/13 01:31:53;;;;;;;8.23;5.32;;;;;;;;;;5075506;28;20027;-62
2023/01/13 01:34:18;;;;;;;6.13;4.75;;;;;;;;;;5075684;28;20058;-62
2023/01/13 01:36:44;;;;;;;7.22;5.00;;;;;;;;;;5075378;28;20035;-53
2023/01/13 01:39:10;;;;;;;6.03;4.88;;;;;;;;;;5075328;28;20031;-57
2023/01/13 01:41:36;;;;;;;6.38;5.57;;;;;;;;;;5075532;28;20468;-62
2023/01/13 01:44:28;;;;;;;6.65;5.07;;;;;;;;;;5074945;28;20053;-62
2023/01/13 01:46:55;;;;;;;5.05;4.47;;;;;;;;;;5074969;28;20021;-55
2023/01/13 01:49:27;;;;;;;5.90;4.95;;;;;;;;;;5075250;28;20534;-61
2023/01/13 01:52:14;;;;;;;6.63;4.90;;;;;;;;;;5075019;28;20090;-62
2023/01/13 01:55:00;;;;;;;6.65;4.80;;;;;;;;;;5075327;28;20388;-59
2023/01/13 01:57:32;;;;;;;5.22;4.68;;;;;;;;;;5074829;28;20621;-55
2023/01/13 01:59:59;;;;;;;5.63;4.78;;;;;;;;;;5074855;28;20025;-51
2023/01/13 02:02:27;;;;;;;8.63;5.30;;;;;;;;;;5075021;28;20024;-55
2023/01/13 02:04:55;;;;;;;5.90;4.70;;;;;;;;;;5074761;28;20142;-54
2023/01/13 02:07:25;;;;;;;7.85;4.80;;;;;;;;;;5074809;28;20393;-54
2023/01/13 02:09:52;;;;;;;;;;;;;;;;;;5074419;28;20157;-61
2023/01/13 02:12:33;;;;;;;6.57;4.25;;;;;;;;;;5074675;28;20344;-54
2023/01/13 02:15:08;;;;;;;5.75;4.72;;;;;;;;;;5074768;28;20026;-62
2023/01/13 02:17:51;;;;;;;5.95;5.03;;;;;;;;;;5074723;28;20031;-56
2023/01/13 02:20:47;;;;;;;5.55;4.60;;;;;;;;;;5074544;28;20025;-61
2023/01/13 02:26:24;;;;;;;5.88;4.70;;;;;;;;;;5074517;28;20044;-55
2023/01/13 03:32:11;;;;;;;6.10;4.60;;;;;;;;;;5072538;28;20385;-54
2023/01/13 03:35:11;;;;;;;5.10;4.40;;;;;;;;;;5073090;28;20032;-55
2023/01/13 03:38:22;;;;;;;4.97;4.15;;;;;;;;;;5073004;28;20020;-53
2023/01/13 03:41:08;;;;;;;5.28;4.43;;;;;;;;;;5072971;28;20024;-54
2023/01/13 03:44:23;;;;;;;5.43;4.40;;;;;;;;;;5072918;28;20468;-54
2023/01/13 03:47:25;;;;;;;5.97;4.45;;;;;;;;;;5072933;28;20028;-51
2023/01/13 03:50:06;;;;;;;5.63;4.85;;;;;;;;;;5072823;28;20029;-51
2023/01/13 03:52:44;;;;;;;5.50;4.22;;;;;;;;;;5054903;28;20392;-54
2023/01/13 03:55:19;;;;;;;6.03;4.32;;;;;;;;;;5054962;28;20115;-53
2023/01/13 03:58:05;;;;;;;4.88;4.38;;;;;;;;;;5072741;28;20111;-54
2023/01/13 04:00:35;;;;;;;6.60;4.38;;;;;;;;;;5073009;28;20036;-51
2023/01/13 04:03:09;;;;;;;;;;;;;;;;;;5073086;28;20111;-54
2023/01/13 04:05:40;;;;;;;6.65;4.50;;;;;;;;;;5072581;28;19916;-62
2023/01/13 04:08:17;;;;;;;5.22;4.20;;;;;;;;;;5072562;28;20511;-55
2023/01/13 04:10:57;;;;;;;7.05;4.43;;;;;;;;;;5072550;28;20036;-55
2023/01/13 04:13:27;;;;;;;6.05;4.93;;;;;;;;;;5072832;28;20028;-58
2023/01/13 04:15:53;;;;;;;5.95;4.43;;;;;;;;;;5072534;28;20021;-53
2023/01/13 04:18:29;;;;;;;5.05;4.43;;;;;;;;;;5072501;28;20074;-54
2023/01/13 04:21:00;;;;;;;6.40;4.30;;;;;;;;;;5088024;28;20036;-56
2023/01/13 04:23:27;;;;;;;7.75;4.93;;;;;;;;;;5072625;28;20028;-55
2023/01/13 04:25:53;;;;;;;5.82;4.82;;;;;;;;;;5072601;28;20426;-51
2023/01/13 04:28:20;;;;;;;6.68;4.55;;;;;;;;;;5072381;28;20032;-55
2023/01/13 04:30:46;;;;;;;5.70;4.70;;;;;;;;;;5072303;28;20028;-53
2023/01/13 04:33:13;;;;;;;5.00;4.00;;;;;;;;;;5071912;28;20451;-54
2023/01/13 04:35:39;;;;;;;5.80;4.43;;;;;;;;;;5072254;28;20078;-53
2023/01/13 04:38:11;;;;;;;4.28;3.88;;;;;;;;;;5072247;28;20024;-54
2023/01/13 04:40:37;;;;;;;5.20;4.20;;;;;;;;;;5072177;28;20029;-54
2023/01/13 04:43:03;;;;;;;5.85;4.70;;;;;;;;;;5072059;28;20473;-58
2023/01/13 04:45:30;;;;;;;7.00;4.60;;;;;;;;;;5072223;28;20035;-52
2023/01/13 04:47:55;;;;;;;5.22;4.15;;;;;;;;;;5072140;28;20020;-55
2023/01/13 04:50:21;;;;;;;6.38;4.57;;;;;;;;;;5072033;28;20039;-53
2023/01/13 04:52:48;;;;;;;5.32;4.43;;;;;;;;;;5072328;28;20087;-62
2023/01/13 04:55:15;;;;;;;4.72;4.22;;;;;;;;;;5072074;28;20028;-60
2023/01/13 04:57:41;;;;;;;4.70;4.15;;;;;;;;;;5072044;28;20078;-54
2023/01/13 05:00:08;;;;;;;5.75;4.50;;;;;;;;;;5071957;28;20028;-55
2023/01/13 05:02:34;;;;;;;5.53;4.00;;;;;;;;;;5072130;28;20119;-53
2023/01/13 05:04:59;;;;;;;5.80;4.20;;;;;;;;;;5071932;28;20107;-56
2023/01/13 05:07:25;;;;;;;5.55;3.90;;;;;;;;;;5054003;28;20032;-55
2023/01/13 05:09:51;;;;;;;6.00;4.65;;;;;;;;;;5072094;28;20050;-53
2023/01/13 05:17:45;;;;;;;4.28;3.88;;;;;;;;;;5072280;28;20423;-54
2023/01/13 05:20:11;;;;;;;5.38;4.40;;;;;;;;;;5071754;28;20028;-57
2023/01/13 05:25:23;;;;;;;5.53;4.32;;;;;;;;;;5071865;28;20047;-63
2023/01/13 05:27:58;;;;;;;5.85;4.47;;;;;;;;;;5071766;28;20024;-55
2023/01/13 05:30:27;;;;;;;5.45;4.38;;;;;;;;;;5071739;28;20067;-56
2023/01/13 05:32:53;;;;;;;5.47;4.18;;;;;;;;;;5071670;28;20044;-62
2023/01/13 05:35:19;;;;;;;5.55;4.22;;;;;;;;;;5071694;28;20025;-55
2023/01/13 05:37:45;;;;;;;5.45;4.50;;;;;;;;;;5071636;28;20043;-54
2023/01/13 05:43:24;;;;;;;5.30;3.97;;;;;;;;;;5071855;28;20553;-58
2023/01/13 05:45:56;;;;;;;4.95;4.10;;;;;;;;;;5074307;28;20027;-56
2023/01/13 05:48:27;;;;;;;6.13;4.43;;;;;;;;;;5075146;28;20029;-55
2023/01/13 05:50:53;;;;;;;5.15;4.03;;;;;;;;;;5075161;28;20035;-55
2023/01/13 05:53:19;;;;;;;4.88;4.05;;;;;;;;;;5074966;28;20111;-55
2023/01/13 05:55:45;;;;;;;5.25;4.30;;;;;;;;;;5075317;28;20373;-55
2023/01/13 05:58:13;;;;;;;4.78;3.70;;;;;;;;;;5074961;28;20019;-51
2023/01/13 06:00:39;;;;;;;5.20;3.75;;;;;;;;;;5074951;28;20028;-54
2023/01/13 06:03:05;;;;;;;5.88;4.35;;;;;;;;;;5074455;28;20138;-63
2023/01/13 06:05:31;;;;;;;5.18;4.13;;;;;;;;;;5074983;28;20024;-62
2023/01/13 06:07:58;;;;;;;4.70;3.80;;;;;;;;;;5074620;28;20028;-53
2023/01/13 06:10:25;;;;;;;4.93;4.13;;;;;;;;;;5074600;28;20028;-60
2023/01/13 06:12:51;;;;;;;4.68;3.83;;;;;;;;;;5074875;28;20153;-54
2023/01/13 06:15:17;;;;;;;5.85;4.30;;;;;;;;;;5074679;28;20467;-60
2023/01/13 06:17:43;;;;;;;4.47;3.78;;;;;;;;;;5090160;28;20016;-55
2023/01/13 06:20:10;;;;;;;4.38;3.97;;;;;;;;;;5074543;28;20031;-61
2023/01/13 06:22:48;;;;;;;4.47;4.07;;;;;;;;;;5056419;28;20025;-58
2023/01/13 06:25:23;;;;;;;5.60;4.20;;;;;;;;;;5074389;28;20020;-55
2023/01/13 06:27:49;;;;;;;5.47;4.22;;;;;;;;;;5074340;28;20126;-53
2023/01/13 06:30:15;;;;;;;5.13;3.95;;;;;;;;;;5069081;28;20407;-54
2023/01/13 06:32:44;;;;;;;6.15;4.28;;;;;;;;;;5066839;28;20052;-57
2023/01/13 06:35:14;;;;;;;5.45;4.43;;;;;;;;;;5071896;28;20035;-60
2023/01/13 06:37:42;;;;;;;6.18;4.18;;;;;;;;;;5074371;28;20035;-59
2023/01/13 06:40:10;;;;;;;6.65;4.53;;;;;;;;;;5073905;28;20094;-59
2023/01/13 06:45:23;;;;;;;5.75;4.35;;;;;;;;;;5071908;28;20039;-61
2023/01/13 06:47:48;;;;;;;5.90;4.93;;;;;;;;;;5072112;28;20100;-60
2023/01/13 06:50:19;;;;;;;4.30;3.78;;;;;;;;;;5072010;28;20099;-62
2023/01/13 06:52:44;;;;;;;5.18;4.68;;;;;;;;;;5072253;28;20089;-58
2023/01/13 06:55:10;;;;;;;5.45;4.43;;;;;;;;;;5071938;28;20535;-60
2023/01/13 06:57:49;;;;;;;5.45;4.20;;;;;;;;;;5069401;28;20385;-61
2023/01/13 07:00:15;;;;;;;5.00;4.50;;;;;;;;;;5068034;28;20028;-58
2023/01/13 07:02:41;;;;;;;4.93;4.45;;;;;;;;;;5072880;28;20540;-56
2023/01/13 07:05:07;;;;;;;5.22;4.15;;;;;;;;;;5073082;28;20028;-61
2023/01/13 07:07:32;;;;;;;5.90;4.57;;;;;;;;;;5073074;28;20026;-57
2023/01/13 07:09:58;;;;;;;5.22;4.28;;;;;;;;;;5073594;28;20082;-61
2023/01/13 07:12:24;;;;;;;5.80;4.53;;;;;;;;;;5073495;28;20059;-56
2023/01/13 07:17:34;;;;;;;5.32;4.35;;;;;;;;;;5073396;28;20071;-58
2023/01/13 07:19:59;;;;;;;4.65;4.20;;;;;;;;;;5073279;28;20074;-61
2023/01/13 07:22:25;;;;;;;5.75;4.57;;;;;;;;;;5072656;28;20096;-57
2023/01/13 07:24:50;;;;;;;7.53;4.60;;;;;;;;;;5072358;28;20037;-62
2023/01/13 07:27:16;;;;;;;7.07;4.85;;;;;;;;;;5073161;28;20021;-56
2023/01/13 07:29:42;;;;;;;5.82;4.63;;;;;;;;;;5071822;28;20036;-60
2023/01/13 07:32:08;;;;;;;5.80;4.65;;;;;;;;;;5071286;28;20029;-58
2023/01/13 07:34:34;;;;;;;4.97;4.35;;;;;;;;;;5071386;28;20055;-63
2023/01/13 07:37:00;;;;;;;5.13;4.53;;;;;;;;;;5071322;28;20070;-62
2023/01/13 07:39:25;;;;;;;5.85;4.40;;;;;;;;;;5071413;28;20032;-60
2023/01/13 07:44:35;;;;;;;5.30;4.60;;;;;;;;;;5071307;28;20058;-60
2023/01/13 07:47:01;;;;;;;5.55;4.70;;;;;;;;;;5071443;28;20407;-64
2023/01/13 07:49:27;;;;;;;5.32;4.45;;;;;;;;;;5071073;28;20029;-60
2023/01/13 07:51:52;;;;;;;6.72;4.55;;;;;;;;;;5053737;28;20029;-58
2023/01/13 07:54:18;;;;;;;4.75;4.25;;;;;;;;;;5069537;28;20765;-61
2023/01/13 07:56:43;;;;;;;4.88;4.38;;;;;;;;;;5071066;28;20031;-60
2023/01/13 07:59:09;;;;;;;5.35;4.30;;;;;;;;;;5070833;28;20028;-64
2023/01/13 08:01:35;;;;;;;5.43;4.40;;;;;;;;;;5070577;28;20052;-63
2023/01/13 08:04:00;;;;;;;5.45;4.20;;;;;;;;;;5052040;28;20041;-62
2023/01/13 08:06:26;;;;;;;5.18;4.25;;;;;;;;;;5070939;28;20112;-62
2023/01/13 08:08:52;;;;;;;4.45;4.03;;;;;;;;;;5070226;28;20082;-62
2023/01/13 08:11:17;;;;;;;5.40;4.82;;;;;;;;;;5071164;28;20028;-63
2023/01/13 08:13:43;;;;;;;5.00;4.50;;;;;;;;;;5069955;28;20023;-60
2023/01/13 08:16:12;;;;;;;5.35;4.43;;;;;;;;;;5070205;28;20075;-62
2023/01/13 08:18:38;;;;;;;4.70;3.95;;;;;;;;;;5070594;28;20621;-60
2023/01/13 08:21:10;;;;;;;4.90;4.20;;;;;;;;;;5067893;28;20107;-61
2023/01/13 08:23:36;;;;;;;5.28;4.70;;;;;;;;;;5068840;28;20115;-61
2023/01/13 08:26:05;;;;;;;5.40;4.30;;;;;;;;;;5070525;28;20028;-60
2023/01/13 08:28:31;;;;;;;5.35;4.53;;;;;;;;;;5070447;28;20035;-62
2023/01/13 08:31:01;;;;;;;5.68;4.20;;;;;;;;;;5072231;28;20020;-61
2023/01/13 08:33:27;;;;;;;5.18;4.50;;;;;;;;;;5068988;28;20094;-62
2023/01/13 08:35:53;;;;;;;5.95;4.53;;;;;;;;;;5054243;28;20028;-55
2023/01/13 08:38:19;;;;;;;5.28;4.30;;;;;;;;;;5071278;28;20102;-56
2023/01/13 08:40:44;;;;;;;6.75;4.88;;;;;;;;;;5072193;28;20025;-59
2023/01/13 08:43:10;;;;;;;5.40;4.40;;;;;;;;;;5071349;28;20558;-61
2023/01/13 08:45:36;;;;;;;4.93;4.30;;;;;;;;;;5053421;28;20056;-55
2023/01/13 08:48:02;;;;;;;6.97;5.07;;;;;;;;;;5071671;28;20116;-57
2023/01/13 08:50:28;;;;;;;5.20;4.30;;;;;;;;;;5072025;28;20024;-55
2023/01/13 08:52:53;;;;;;;4.70;4.20;;;;;;;;;;5071913;28;20031;-56
2023/01/13 08:55:19;;;;;;;5.90;4.60;;;;;;;;;;5072237;28;20078;-61
2023/01/13 08:57:44;;;;;;;5.35;4.55;;;;;;;;;;5071769;28;20077;-58
2023/01/13 09:00:11;;;;;;;5.07;4.47;;;;;;;;;;5071877;28;20035;-57
2023/01/13 09:02:37;;;;;;;5.07;4.55;;;;;;;;;;5072113;28;20025;-58
2023/01/13 09:05:06;;;;;;;4.72;4.20;;;;;;;;;;5072149;28;20384;-57
2023/01/13 09:07:33;;;;;;;5.53;4.60;;;;;;;;;;5071733;28;20028;-60
2023/01/13 09:10:00;;;;;;;5.25;4.18;;;;;;;;;;5053971;28;20241;-59
2023/01/13 09:15:11;;;;;;;5.55;4.70;;;;;;;;;;5072070;28;20062;-58
2023/01/13 09:17:37;;;;;;;5.18;4.40;;;;;;;;;;5071802;28;20025;-56
2023/01/13 09:20:04;;;;;;;5.18;4.05;;;;;;;;;;5074764;28;20027;-53
2023/01/13 09:22:29;;;;;;;5.60;4.40;;;;;;;;;;5075435;28;20025;-57
2023/01/13 09:24:55;;;;;;;5.40;4.40;;;;;;;;;;5075549;28;20024;-61
2023/01/13 09:27:21;;;;;;;5.60;4.72;;;;;;;;;;5075480;28;20025;-56
2023/01/13 09:29:48;;;;;;;5.55;4.32;;;;;;;;;;5075639;28;20518;-61
2023/01/13 09:32:14;;;;;;;5.40;4.47;;;;;;;;;;5090396;28;20020;-56
2023/01/13 09:37:26;;;;;;;4.68;4.20;;;;;;;;;;5088927;28;20558;-56
2023/01/13 09:39:51;;;;;;;4.82;4.30;;;;;;;;;;5075241;28;20059;-54
2023/01/13 09:45:25;;;;;;;7.53;4.50;;;;;;;;;;5075235;28;20043;-55
2023/01/13 09:48:03;;;;;;;5.57;4.60;;;;;;;;;;5075115;28;20036;-57
2023/01/13 09:50:37;;;;;;;4.90;4.28;;;;;;;;;;5053712;28;20133;-63
2023/01/13 09:53:12;;;;;;;5.15;4.35;;;;;;;;;;5073516;28;20132;-56
2023/01/13 09:55:38;;;;;;;5.93;4.10;;;;;;;;;;5071424;28;20029;-55
2023/01/13 09:58:16;;;;;;;5.20;4.40;;;;;;;;;;5072859;28;20119;-55
2023/01/13 10:00:50;;;;;;;5.35;4.50;;;;;;;;;;5073365;28;20028;-55
2023/01/13 10:03:24;;;;;;;4.93;4.25;;;;;;;;;;5073265;28;20032;-62
2023/01/13 10:06:00;;;;;;;5.88;4.60;;;;;;;;;;5086904;28;20052;-56
2023/01/13 10:08:32;;;;;;;6.18;4.60;;;;;;;;;;5071871;28;20085;-55
2023/01/13 10:13:57;;;;;;;5.15;4.50;;;;;;;;;;5051528;28;20424;-63
2023/01/13 10:17:11;;;;;;;5.85;4.60;;;;;;;;;;5073066;28;20067;-55
2023/01/13 10:19:46;;;;;;;5.85;4.10;;;;;;;;;;5069871;28;20049;-60
2023/01/13 10:22:51;;;;;;;5.75;4.50;;;;;;;;;;5073011;28;20032;-56
2023/01/13 10:25:23;;;;;;;5.82;4.50;;;;;;;;;;5058844;28;20046;-63
2023/01/13 10:27:54;;;;;;;5.20;4.63;;;;;;;;;;5072801;28;20582;-56
2023/01/13 10:30:31;;;;;;;6.15;4.97;;;;;;;;;;5070516;28;20055;-56
2023/01/13 10:33:16;;;;;;;5.68;4.65;;;;;;;;;;5072327;28;20055;-61
2023/01/13 10:36:00;;;;;;;5.43;4.55;;;;;;;;;;5072803;28;20792;-57
2023/01/13 10:38:36;;;;;;;5.60;4.20;;;;;;;;;;5072554;28;20021;-63
2023/01/13 10:41:23;;;;;;;6.05;4.55;;;;;;;;;;5072661;28;20025;-56
2023/01/13 10:44:04;;;;;;;5.47;4.53;;;;;;;;;;5072016;28;20056;-58
2023/01/13 10:46:48;;;;;;;6.85;4.65;;;;;;;;;;5072704;28;20046;-60
2023/01/13 10:49:35;;;;;;;5.85;4.82;;;;;;;;;;5054577;28;20024;-57
2023/01/13 10:52:03;;;;;;;5.38;4.35;;;;;;;;;;5072432;28;20618;-56
2023/01/13 10:54:29;;;;;;;4.78;4.20;;;;;;;;;;5072208;28;20025;-55
2023/01/13 10:57:21;;;;;;;5.68;4.60;;;;;;;;;;5072349;28;20035;-61
2023/01/13 10:59:48;;;;;;;6.03;4.50;;;;;;;;;;5072525;28;20032;-57
2023/01/13 11:02:13;;;;;;;5.57;4.70;;;;;;;;;;5071994;28;20074;-60
2023/01/13 11:05:09;;;;;;;6.28;4.93;;;;;;;;;;5072169;28;20036;-58
2023/01/13 11:07:38;;;;;;;4.90;4.40;;;;;;;;;;5072032;28;20032;-63
2023/01/13 11:10:15;;;;;;;5.07;4.20;;;;;;;;;;5070596;28;20528;-60
2023/01/13 11:12:56;;;;;;;5.53;4.55;;;;;;;;;;5062574;28;20032;-57
2023/01/13 11:15:32;;;;;;;6.53;4.63;;;;;;;;;;5071827;28;20437;-57
2023/01/13 11:18:03;;;;;;;6.57;4.53;;;;;;;;;;5071975;28;20029;-59
2023/01/13 11:20:35;;;;;;;5.60;4.53;;;;;;;;;;5071854;28;20067;-63
2023/01/13 11:23:11;;;;;;;5.28;4.50;;;;;;;;;;5071721;28;20731;-61
2023/01/13 11:25:41;;;;;;;6.13;4.95;;;;;;;;;;5087494;28;20108;-57
2023/01/13 11:28:19;;;;;;;5.20;4.57;;;;;;;;;;5068853;28;20468;-57
2023/01/13 11:31:17;;;;;;;5.20;4.47;;;;;;;;;;5068910;28;20111;-57
2023/01/13 11:33:49;;;;;;;6.22;4.57;;;;;;;;;;5055329;28;20045;-58
2023/01/13 11:36:38;;;;;;;5.53;4.72;;;;;;;;;;5070214;28;20027;-55
2023/01/13 11:39:31;;;;;;;6.18;4.68;;;;;;;;;;5071529;28;20384;-58
2023/01/13 11:42:20;;;;;;;6.65;5.05;;;;;;;;;;5070967;28;20043;-57
2023/01/13 11:45:11;;;;;;;6.13;4.68;;;;;;;;;;5070605;28;20105;-57
2023/01/13 11:47:37;;;;;;;7.20;5.00;;;;;;;;;;5071347;28;20024;-57
2023/01/13 11:50:13;;;;;;;6.28;4.55;;;;;;;;;;5053242;28;20051;-56
2023/01/13 11:52:41;;;;;;;6.25;4.60;;;;;;;;;;5071210;28;20473;-56
2023/01/13 11:55:25;;;;;;;5.45;4.88;;;;;;;;;;5071729;28;20032;-65
2023/01/13 11:58:29;;;;;;;5.15;4.53;;;;;;;;;;5071053;28;20063;-64
2023/01/13 12:01:21;;;;;;;5.68;4.38;;;;;;;;;;5058525;28;20124;-54
2023/01/13 12:04:20;;;;;;;5.82;4.40;;;;;;;;;;5070884;28;20365;-55
2023/01/13 12:07:12;;;;;;;5.70;4.60;;;;;;;;;;5071388;28;20047;-56
2023/01/13 12:09:43;;;;;;;5.53;4.60;;;;;;;;;;5068915;28;20086;-64
2023/01/13 12:12:26;;;;;;;6.80;4.90;;;;;;;;;;5070959;28;20025;-54
2023/01/13 12:15:01;;;;;;;6.00;4.57;;;;;;;;;;5070911;28;20489;-58
2023/01/13 12:17:48;;;;;;;6.20;4.60;;;;;;;;;;5070925;28;20021;-64
2023/01/13 12:20:31;;;;;;;4.53;4.10;;;;;;;;;;5070485;28;20039;-56
2023/01/13 12:23:02;;;;;;;4.82;4.25;;;;;;;;;;5070819;28;20492;-60
2023/01/13 12:25:57;;;;;;;5.68;4.40;;;;;;;;;;5070637;28;20025;-54
2023/01/13 12:28:28;;;;;;;6.20;4.60;;;;;;;;;;5069390;28;20173;-56
2023/01/13 12:31:01;;;;;;;5.35;4.32;;;;;;;;;;5068200;28;20028;-55
2023/01/13 12:33:53;;;;;;;5.38;4.47;;;;;;;;;;5069972;28;20051;-56
2023/01/13 12:36:33;;;;;;;5.15;4.22;;;;;;;;;;5070622;28;20427;-61
2023/01/13 12:39:36;;;;;;;5.88;4.50;;;;;;;;;;5070756;28;20040;-58
2023/01/13 12:45:13;;;;;;;7.65;4.72;;;;;;;;;;5070400;28;20044;-59
2023/01/13 12:47:45;;;;;;;4.63;4.20;;;;;;;;;;5070359;28;20485;-65
2023/01/13 12:50:22;;;;;;;5.07;4.13;;;;;;;;;;5070690;28;20522;-64
2023/01/13 12:52:52;;;;;;;4.47;4.05;;;;;;;;;;5070231;28;20559;-55
2023/01/13 12:55:20;;;;;;;7.20;4.60;;;;;;;;;;5074355;28;20028;-56
2023/01/13 12:58:05;;;;;;;6.15;4.55;;;;;;;;;;5074487;28;20161;-56
2023/01/13 13:00:52;;;;;;;5.28;4.47;;;;;;;;;;5074848;28;20383;-56
2023/01/13 13:03:42;;;;;;;5.93;4.40;;;;;;;;;;5074167;28;20380;-54
2023/01/13 13:06:22;;;;;;;7.07;4.50;;;;;;;;;;5055997;28;20523;-64
2023/01/13 13:09:03;;;;;;;4.93;3.92;;;;;;;;;;5074375;28;20035;-56
2023/01/13 13:14:38;;;;;;;5.38;4.30;;;;;;;;;;5070858;28;20029;-54
2023/01/13 13:17:24;;;;;;;5.43;4.45;;;;;;;;;;5074157;28;20099;-56
2023/01/13 13:19:50;;;;;;;5.40;4.57;;;;;;;;;;5074008;28;20024;-56
2023/01/13 13:22:17;;;;;;;5.20;4.18;;;;;;;;;;5072400;28;20017;-55
2023/01/13 13:24:56;;;;;;;4.93;3.92;;;;;;;;;;5074119;28;20162;-54
2023/01/13 13:27:43;;;;;;;4.72;3.70;;;;;;;;;;5073996;28;20477;-57
2023/01/13 13:30:16;;;;;;;5.43;4.30;;;;;;;;;;5073945;28;20032;-56
2023/01/13 13:32:54;;;;;;;5.07;4.20;;;;;;;;;;5073622;28;20128;-57
2023/01/13 13:35:39;;;;;;;5.80;4.35;;;;;;;;;;5056006;28;20120;-56
2023/01/13 13:47:05;;;;;;;6.20;4.80;;;;;;;;;;5073885;28;20131;-55
2023/01/13 13:49:59;;;;;;;6.97;4.25;;;;;;;;;;5071440;28;20090;-53
2023/01/13 13:52:50;;;;;;;4.72;4.00;;;;;;;;;;5070471;28;20656;-51
2023/01/13 13:55:19;;;;;;;4.80;4.13;;;;;;;;;;5073473;28;20029;-55
2023/01/13 13:57:47;;;;;;;6.93;4.50;;;;;;;;;;5073097;28;20025;-57
2023/01/13 14:00:29;;;;;;;4.95;4.20;;;;;;;;;;5073284;28;20036;-54
2023/01/13 14:03:23;;;;;;;5.47;4.35;;;;;;;;;;5073129;28;20429;-57
2023/01/13 14:06:19;;;;;;;7.18;4.38;;;;;;;;;;5072069;28;20017;-53
2023/01/13 14:08:49;;;;;;;5.50;4.28;;;;;;;;;;5071969;28;20091;-55
2023/01/13 14:11:33;;;;;;;5.55;4.05;;;;;;;;;;5073053;28;20028;-54
2023/01/13 14:14:11;;;;;;;5.68;4.78;;;;;;;;;;5072915;28;20052;-53
2023/01/13 14:16:39;;;;;;;6.80;4.55;;;;;;;;;;5073064;28;20017;-53
2023/01/13 14:19:06;;;;;;;6.05;4.00;;;;;;;;;;5072951;28;20480;-53
2023/01/13 14:21:31;;;;;;;5.18;4.32;;;;;;;;;;5073094;28;20067;-58
2023/01/13 14:24:04;;;;;;;6.03;4.30;;;;;;;;;;5070221;28;20064;-56
2023/01/13 14:26:31;;;;;;;5.22;4.50;;;;;;;;;;5072673;28;20028;-56
2023/01/13 14:29:00;;;;;;;5.20;4.18;;;;;;;;;;5054836;28;20476;-54
2023/01/13 14:31:27;;;;;;;5.32;4.03;;;;;;;;;;5072712;28;20055;-56
2023/01/13 14:33:57;;;;;;;4.97;4.13;;;;;;;;;;5072478;28;20049;-53
2023/01/13 14:36:23;;;;;;;;;;;;;;;;;;5053757;28;20102;-52
2023/01/13 14:39:06;;;;;;;7.47;4.32;;;;;;;;;;5072734;28;19920;-54
2023/01/13 14:41:44;;;;;;;5.00;3.85;;;;;;;;;;5072585;28;20029;-54
2023/01/13 14:44:25;;;;;;;5.30;4.45;;;;;;;;;;5072554;28;20115;-57
2023/01/13 14:46:54;;;;;;;4.90;4.25;;;;;;;;;;5072556;28;20031;-54
2023/01/13 14:49:29;;;;;;;6.18;4.35;;;;;;;;;;5054476;28;20035;-57
2023/01/13 14:52:07;;;;;;;5.50;4.63;;;;;;;;;;5072310;28;20439;-55
2023/01/13 14:54:41;;;;;;;5.50;4.38;;;;;;;;;;5054366;28;20115;-60
2023/01/13 14:57:14;;;;;;;6.07;4.20;;;;;;;;;;5072077;28;20032;-57
2023/01/13 14:59:42;;;;;;;4.55;4.15;;;;;;;;;;5072275;28;20056;-57
2023/01/13 15:02:29;;;;;;;8.68;4.18;;;;;;;;;;5072265;28;20098;-56
2023/01/13 15:04:58;;;;;;;5.05;4.30;;;;;;;;;;5072074;28;20047;-58
2023/01/13 15:07:25;;;;;;;4.85;4.15;;;;;;;;;;5071804;28;20028;-62
2023/01/13 15:09:57;;;;;;;7.10;4.15;;;;;;;;;;5072029;28;20024;-57
2023/01/13 15:12:34;;;;;;;5.25;4.30;;;;;;;;;;5072014;28;20115;-55
2023/01/13 15:15:03;;;;;;;5.05;4.32;;;;;;;;;;5070942;28;20551;-56
2023/01/13 15:17:29;;;;;;;5.15;4.13;;;;;;;;;;5071715;28;20025;-49
2023/01/13 15:19:54;;;;;;;5.15;4.60;;;;;;;;;;5071592;28;20024;-52
2023/01/13 15:22:20;;;;;;;5.00;3.97;;;;;;;;;;5071791;28;20103;-55
2023/01/13 15:24:46;;;;;;;4.90;4.40;;;;;;;;;;5071422;28;20040;-55
2023/01/13 15:27:23;;;;;;;5.25;4.20;;;;;;;;;;5071826;28;20029;-51
2023/01/13 15:29:49;;;;;;;7.38;4.40;;;;;;;;;;5071461;28;20270;-51
2023/01/13 15:32:20;;;;;;;5.25;4.28;;;;;;;;;;5070910;28;20367;-61
2023/01/13 15:34:46;;;;;;;5.50;3.97;;;;;;;;;;5071193;28;20110;-54
2023/01/13 15:37:16;;;;;;;4.93;4.13;;;;;;;;;;5054059;28;20051;-54
2023/01/13 15:39:42;;;;;;;5.17;4.53;;;;;;;;;;5071464;28;20027;-56
2023/01/13 15:47:39;;;;;;;4.70;4.10;;;;;;;;;;5071603;28;20535;-58
2023/01/13 15:50:05;;;;;;;5.65;4.22;;;;;;;;;;5071167;28;20028;-57
2023/01/13 15:52:31;;;;;;;4.53;4.13;;;;;;;;;;5071015;28;20032;-56
2023/01/13 15:54:56;;;;;;;5.30;4.45;;;;;;;;;;5071529;28;20028;-58
2023/01/13 15:57:24;;;;;;;4.95;4.30;;;;;;;;;;5070968;28;20051;-59
2023/01/13 15:59:53;;;;;;;4.80;4.20;;;;;;;;;;5050014;28;20040;-58
2023/01/13 16:02:23;;;;;;;4.65;4.03;;;;;;;;;;5070983;28;20021;-57
2023/01/13 16:04:50;;;;;;;5.13;4.00;;;;;;;;;;5071288;28;20032;-61
2023/01/13 16:07:17;;;;;;;5.07;4.13;;;;;;;;;;5070981;28;20056;-55
2023/01/13 16:09:44;;;;;;;5.28;3.80;;;;;;;;;;5070929;28;20169;-57
2023/01/13 16:12:10;;;;;;;4.60;4.13;;;;;;;;;;5070931;28;20099;-58
2023/01/13 16:14:36;;;;;;;4.35;3.83;;;;;;;;;;5070859;28;20036;-55
2023/01/13 16:17:23;;;;;;;4.88;4.13;;;;;;;;;;5071155;28;20152;-58
2023/01/13 16:19:50;;;;;;;5.05;4.15;;;;;;;;;;5071058;28;20032;-57
2023/01/13 16:22:16;;;;;;;4.53;3.78;;;;;;;;;;5070759;28;20066;-57
2023/01/13 16:24:42;;;;;;;4.90;3.80;;;;;;;;;;5070764;28;20112;-58
2023/01/13 16:27:17;;;;;;;4.25;3.83;;;;;;;;;;5070730;28;20054;-57
2023/01/13 16:29:43;;;;;;;5.07;4.25;;;;;;;;;;5070090;28;20059;-57
2023/01/13 16:32:09;;;;;;;4.35;3.78;;;;;;;;;;5070415;28;20673;-57
2023/01/13 16:34:35;;;;;;;5.07;4.18;;;;;;;;;;5070565;28;20034;-54
2023/01/13 16:37:01;;;;;;;4.90;4.15;;;;;;;;;;5070926;28;20020;-57
2023/01/13 16:39:26;;;;;;;4.10;3.70;;;;;;;;;;5070636;28;20422;-58
2023/01/13 16:41:52;;;;;;;4.90;4.07;;;;;;;;;;5070398;28;20036;-56
2023/01/13 16:44:18;;;;;;;5.00;4.30;;;;;;;;;;5070653;28;20067;-63
2023/01/13 16:46:44;;;;;;;4.22;3.80;;;;;;;;;;5070504;28;20028;-62
2023/01/13 16:49:12;;;;;;;4.35;3.95;;;;;;;;;;5070411;28;20032;-59
2023/01/13 16:51:38;;;;;;;4.68;4.15;;;;;;;;;;5070341;28;20468;-59
2023/01/13 16:54:04;;;;;;;5.53;4.10;;;;;;;;;;5070554;28;20127;-59
2023/01/13 16:56:32;;;;;;;5.00;4.43;;;;;;;;;;5052621;28;20078;-58
2023/01/13 16:59:02;;;;;;;6.57;4.15;;;;;;;;;;5052536;28;20029;-57
2023/01/13 17:01:33;;;;;;;4.13;3.67;;;;;;;;;;5070629;28;20024;-55
2023/01/13 17:04:01;;;;;;;4.45;3.88;;;;;;;;;;5070145;28;20029;-57
2023/01/13 17:06:53;;;;;;;5.25;4.32;;;;;;;;;;5070298;28;20044;-57
2023/01/13 17:09:21;;;;;;;4.85;3.88;;;;;;;;;;5061168;28;20537;-56
2023/01/13 17:11:47;;;;;;;5.13;4.18;;;;;;;;;;5070108;28;20024;-57